sensor_id;sensor_type;location;lat;lon;timestamp;P1;durP1;ratioP1;P2;durP2;ratioP2
19903;SDS011;10114;50.970;4.962;2023-08-01T00:01:58;4.30;;;1.50;;
19903;SDS011;10114;50.970;4.962;2023-08-01T00:04:24;6.18;;;1.70;;
19903;SDS011;10114;50.970;4.962;2023-08-01T00:06:50;4.35;;;1.60;;
19903;SDS011;10114;50.970;4.962;2023-08-01T00:09:16;2.95;;;1.10;;
19903;SDS011;10114;50.970;4.962;2023-08-01T00:11:42;4.10;;;1.52;;
19903;SDS011;10114;50.970;4.962;2023-08-01T00:14:08;4.82;;;1.50;;
19903;SDS011;10114;50.970;4.962;2023-08-01T00:16:34;3.58;;;1.40;;
19903;SDS011;10114;50.970;4.962;2023-08-01T00:19:00;6.05;;;1.92;;
19903;SDS011;10114;50.970;4.962;2023-08-01T00:21:26;4.78;;;1.42;;
19903;SDS011;10114;50.970;4.962;2023-08-01T00:23:52;4.55;;;1.63;;
19903;SDS011;10114;50.970;4.962;2023-08-01T00:26:18;4.30;;;1.40;;
19903;SDS011;10114;50.970;4.962;2023-08-01T00:28:44;3.92;;;1.50;;
19903;SDS011;10114;50.970;4.962;2023-08-01T00:31:10;4.97;;;1.48;;
19903;SDS011;10114;50.970;4.962;2023-08-01T00:33:36;5.18;;;1.75;;
19903;SDS011;10114;50.970;4.962;2023-08-01T00:36:03;6.68;;;1.77;;
19903;SDS011;10114;50.970;4.962;2023-08-01T00:38:34;5.70;;;1.48;;
19903;SDS011;10114;50.970;4.962;2023-08-01T00:41:00;4.63;;;1.83;;
19903;SDS011;10114;50.970;4.962;2023-08-01T00:43:26;3.78;;;1.65;;
19903;SDS011;10114;50.970;4.962;2023-08-01T00:45:52;5.28;;;2.00;;
19903;SDS011;10114;50.970;4.962;2023-08-01T00:48:19;6.68;;;1.95;;
19903;SDS011;10114;50.970;4.962;2023-08-01T00:50:45;5.13;;;1.80;;
19903;SDS011;10114;50.970;4.962;2023-08-01T00:53:11;5.05;;;1.52;;
19903;SDS011;10114;50.970;4.962;2023-08-01T00:55:37;6.05;;;1.70;;
19903;SDS011;10114;50.970;4.962;2023-08-01T00:58:04;6.50;;;2.22;;
19903;SDS011;10114;50.970;4.962;2023-08-01T01:00:30;6.53;;;2.30;;
19903;SDS011;10114;50.970;4.962;2023-08-01T01:02:56;7.78;;;2.40;;
19903;SDS011;10114;50.970;4.962;2023-08-01T01:05:22;5.32;;;2.50;;
19903;SDS011;10114;50.970;4.962;2023-08-01T01:07:48;7.25;;;2.83;;
19903;SDS011;10114;50.970;4.962;2023-08-01T01:10:15;6.30;;;2.70;;
19903;SDS011;10114;50.970;4.962;2023-08-01T01:12:41;8.73;;;2.95;;
19903;SDS011;10114;50.970;4.962;2023-08-01T01:15:07;7.13;;;2.50;;
19903;SDS011;10114;50.970;4.962;2023-08-01T01:17:33;5.95;;;2.90;;
19903;SDS011;10114;50.970;4.962;2023-08-01T01:19:59;5.60;;;2.42;;
19903;SDS011;10114;50.970;4.962;2023-08-01T01:22:25;7.40;;;2.95;;
19903;SDS011;10114;50.970;4.962;2023-08-01T01:24:53;7.80;;;2.75;;
19903;SDS011;10114;50.970;4.962;2023-08-01T01:27:19;8.27;;;2.85;;
19903;SDS011;10114;50.970;4.962;2023-08-01T01:29:45;7.05;;;2.78;;
19903;SDS011;10114;50.970;4.962;2023-08-01T01:32:13;8.68;;;3.28;;
19903;SDS011;10114;50.970;4.962;2023-08-01T01:34:39;9.05;;;3.22;;
19903;SDS011;10114;50.970;4.962;2023-08-01T01:37:05;9.07;;;3.20;;
19903;SDS011;10114;50.970;4.962;2023-08-01T01:39:31;7.15;;;2.95;;
19903;SDS011;10114;50.970;4.962;2023-08-01T01:41:57;10.93;;;3.80;;
19903;SDS011;10114;50.970;4.962;2023-08-01T01:44:23;9.35;;;3.70;;
19903;SDS011;10114;50.970;4.962;2023-08-01T01:46:49;8.57;;;3.65;;
19903;SDS011;10114;50.970;4.962;2023-08-01T01:49:15;7.97;;;3.78;;
19903;SDS011;10114;50.970;4.962;2023-08-01T01:51:41;7.63;;;3.45;;
19903;SDS011;10114;50.970;4.962;2023-08-01T01:54:07;12.25;;;4.07;;
19903;SDS011;10114;50.970;4.962;2023-08-01T01:56:33;12.27;;;4.30;;
19903;SDS011;10114;50.970;4.962;2023-08-01T01:59:00;8.13;;;3.92;;
19903;SDS011;10114;50.970;4.962;2023-08-01T02:01:27;9.25;;;4.38;;
19903;SDS011;10114;50.970;4.962;2023-08-01T02:03:53;11.95;;;4.20;;
19903;SDS011;10114;50.970;4.962;2023-08-01T02:06:19;11.25;;;4.30;;
19903;SDS011;10114;50.970;4.962;2023-08-01T02:08:45;9.27;;;4.50;;
19903;SDS011;10114;50.970;4.962;2023-08-01T02:11:11;8.95;;;4.25;;
19903;SDS011;10114;50.970;4.962;2023-08-01T02:13:37;8.95;;;4.32;;
19903;SDS011;10114;50.970;4.962;2023-08-01T02:16:03;11.80;;;4.45;;
19903;SDS011;10114;50.970;4.962;2023-08-01T02:18:29;12.63;;;4.30;;
19903;SDS011;10114;50.970;4.962;2023-08-01T02:20:55;12.30;;;5.20;;
19903;SDS011;10114;50.970;4.962;2023-08-01T02:23:21;9.40;;;4.50;;
19903;SDS011;10114;50.970;4.962;2023-08-01T02:25:47;13.60;;;5.18;;
19903;SDS011;10114;50.970;4.962;2023-08-01T02:28:13;10.73;;;4.45;;
19903;SDS011;10114;50.970;4.962;2023-08-01T02:30:39;10.15;;;4.72;;
19903;SDS011;10114;50.970;4.962;2023-08-01T02:33:05;8.35;;;4.55;;
19903;SDS011;10114;50.970;4.962;2023-08-01T02:35:31;10.48;;;4.95;;
19903;SDS011;10114;50.970;4.962;2023-08-01T02:37:57;11.82;;;4.90;;
19903;SDS011;10114;50.970;4.962;2023-08-01T02:40:23;13.02;;;5.00;;
19903;SDS011;10114;50.970;4.962;2023-08-01T02:42:51;10.48;;;5.20;;
19903;SDS011;10114;50.970;4.962;2023-08-01T02:45:17;16.40;;;5.25;;
19903;SDS011;10114;50.970;4.962;2023-08-01T02:47:43;8.52;;;4.22;;
19903;SDS011;10114;50.970;4.962;2023-08-01T02:50:09;16.75;;;5.00;;
19903;SDS011;10114;50.970;4.962;2023-08-01T02:52:35;12.18;;;4.53;;
19903;SDS011;10114;50.970;4.962;2023-08-01T02:55:01;13.90;;;5.25;;
19903;SDS011;10114;50.970;4.962;2023-08-01T02:57:27;12.93;;;4.97;;
19903;SDS011;10114;50.970;4.962;2023-08-01T02:59:53;14.88;;;5.47;;
19903;SDS011;10114;50.970;4.962;2023-08-01T03:02:19;16.17;;;5.80;;
19903;SDS011;10114;50.970;4.962;2023-08-01T03:04:45;15.07;;;5.57;;
19903;SDS011;10114;50.970;4.962;2023-08-01T03:07:11;12.30;;;4.65;;
19903;SDS011;10114;50.970;4.962;2023-08-01T03:09:38;12.95;;;5.45;;
19903;SDS011;10114;50.970;4.962;2023-08-01T03:12:04;11.13;;;4.95;;
19903;SDS011;10114;50.970;4.962;2023-08-01T03:14:30;11.95;;;5.22;;
19903;SDS011;10114;50.970;4.962;2023-08-01T03:16:57;13.32;;;4.60;;
19903;SDS011;10114;50.970;4.962;2023-08-01T03:19:23;12.95;;;5.50;;
19903;SDS011;10114;50.970;4.962;2023-08-01T03:21:49;14.52;;;5.30;;
19903;SDS011;10114;50.970;4.962;2023-08-01T03:24:15;11.45;;;5.47;;
19903;SDS011;10114;50.970;4.962;2023-08-01T03:26:41;11.43;;;4.80;;
19903;SDS011;10114;50.970;4.962;2023-08-01T03:29:07;15.00;;;5.25;;
19903;SDS011;10114;50.970;4.962;2023-08-01T03:31:33;16.23;;;5.70;;
19903;SDS011;10114;50.970;4.962;2023-08-01T03:33:59;16.15;;;6.32;;
19903;SDS011;10114;50.970;4.962;2023-08-01T03:36:25;12.63;;;5.78;;
19903;SDS011;10114;50.970;4.962;2023-08-01T03:38:51;15.30;;;6.15;;
19903;SDS011;10114;50.970;4.962;2023-08-01T03:41:17;22.35;;;7.25;;
19903;SDS011;10114;50.970;4.962;2023-08-01T03:43:43;18.13;;;6.20;;
19903;SDS011;10114;50.970;4.962;2023-08-01T03:46:09;13.43;;;6.35;;
19903;SDS011;10114;50.970;4.962;2023-08-01T03:48:35;17.27;;;7.00;;
19903;SDS011;10114;50.970;4.962;2023-08-01T03:51:01;18.73;;;6.45;;
19903;SDS011;10114;50.970;4.962;2023-08-01T03:53:29;17.67;;;6.38;;
19903;SDS011;10114;50.970;4.962;2023-08-01T03:55:55;15.50;;;7.03;;
19903;SDS011;10114;50.970;4.962;2023-08-01T03:58:21;19.52;;;7.32;;
19903;SDS011;10114;50.970;4.962;2023-08-01T04:00:47;15.48;;;6.57;;
19903;SDS011;10114;50.970;4.962;2023-08-01T04:03:13;14.23;;;7.07;;
19903;SDS011;10114;50.970;4.962;2023-08-01T04:05:39;23.85;;;7.32;;
19903;SDS011;10114;50.970;4.962;2023-08-01T04:08:05;16.65;;;7.43;;
19903;SDS011;10114;50.970;4.962;2023-08-01T04:10:31;21.05;;;7.28;;
19903;SDS011;10114;50.970;4.962;2023-08-01T04:12:57;18.00;;;6.97;;
19903;SDS011;10114;50.970;4.962;2023-08-01T04:15:23;12.57;;;6.68;;
19903;SDS011;10114;50.970;4.962;2023-08-01T04:17:49;19.15;;;7.07;;
19903;SDS011;10114;50.970;4.962;2023-08-01T04:20:15;16.85;;;6.70;;
19903;SDS011;10114;50.970;4.962;2023-08-01T04:22:41;19.65;;;7.32;;
19903;SDS011;10114;50.970;4.962;2023-08-01T04:25:07;16.13;;;6.70;;
19903;SDS011;10114;50.970;4.962;2023-08-01T04:27:33;14.27;;;6.90;;
19903;SDS011;10114;50.970;4.962;2023-08-01T04:30:00;16.20;;;7.97;;
19903;SDS011;10114;50.970;4.962;2023-08-01T04:32:26;19.38;;;7.63;;
19903;SDS011;10114;50.970;4.962;2023-08-01T04:34:52;18.13;;;7.25;;
19903;SDS011;10114;50.970;4.962;2023-08-01T04:37:18;15.70;;;6.82;;
19903;SDS011;10114;50.970;4.962;2023-08-01T04:39:47;18.35;;;7.45;;
19903;SDS011;10114;50.970;4.962;2023-08-01T04:42:13;17.73;;;7.22;;
19903;SDS011;10114;50.970;4.962;2023-08-01T04:44:39;21.05;;;8.80;;
19903;SDS011;10114;50.970;4.962;2023-08-01T04:47:05;18.83;;;8.10;;
19903;SDS011;10114;50.970;4.962;2023-08-01T04:49:31;17.42;;;7.32;;
19903;SDS011;10114;50.970;4.962;2023-08-01T04:51:57;15.65;;;7.38;;
19903;SDS011;10114;50.970;4.962;2023-08-01T04:54:23;15.82;;;6.82;;
19903;SDS011;10114;50.970;4.962;2023-08-01T04:56:49;18.40;;;7.63;;
19903;SDS011;10114;50.970;4.962;2023-08-01T04:59:15;20.65;;;7.70;;
19903;SDS011;10114;50.970;4.962;2023-08-01T05:01:41;20.75;;;8.40;;
19903;SDS011;10114;50.970;4.962;2023-08-01T05:04:07;20.17;;;8.65;;
19903;SDS011;10114;50.970;4.962;2023-08-01T05:06:33;18.20;;;8.23;;
19903;SDS011;10114;50.970;4.962;2023-08-01T05:09:00;18.70;;;7.60;;
19903;SDS011;10114;50.970;4.962;2023-08-01T05:11:26;17.15;;;7.45;;
19903;SDS011;10114;50.970;4.962;2023-08-01T05:13:52;19.85;;;8.20;;
19903;SDS011;10114;50.970;4.962;2023-08-01T05:16:18;17.17;;;7.15;;
19903;SDS011;10114;50.970;4.962;2023-08-01T05:18:44;16.58;;;6.68;;
19903;SDS011;10114;50.970;4.962;2023-08-01T05:21:10;16.58;;;6.72;;
19903;SDS011;10114;50.970;4.962;2023-08-01T05:23:36;22.52;;;8.02;;
19903;SDS011;10114;50.970;4.962;2023-08-01T05:26:02;18.10;;;7.82;;
19903;SDS011;10114;50.970;4.962;2023-08-01T05:28:28;14.02;;;7.13;;
19903;SDS011;10114;50.970;4.962;2023-08-01T05:30:54;17.35;;;6.53;;
19903;SDS011;10114;50.970;4.962;2023-08-01T05:33:20;22.20;;;7.40;;
19903;SDS011;10114;50.970;4.962;2023-08-01T05:35:46;15.10;;;6.43;;
19903;SDS011;10114;50.970;4.962;2023-08-01T05:38:12;16.20;;;6.93;;
19903;SDS011;10114;50.970;4.962;2023-08-01T05:40:38;16.98;;;6.18;;
19903;SDS011;10114;50.970;4.962;2023-08-01T05:43:04;16.48;;;6.90;;
19903;SDS011;10114;50.970;4.962;2023-08-01T05:45:33;15.48;;;6.65;;
19903;SDS011;10114;50.970;4.962;2023-08-01T05:47:59;17.92;;;6.53;;
19903;SDS011;10114;50.970;4.962;2023-08-01T05:50:25;18.45;;;7.43;;
19903;SDS011;10114;50.970;4.962;2023-08-01T05:52:51;20.08;;;6.63;;
19903;SDS011;10114;50.970;4.962;2023-08-01T05:55:17;11.43;;;6.25;;
19903;SDS011;10114;50.970;4.962;2023-08-01T05:57:43;19.10;;;6.82;;
19903;SDS011;10114;50.970;4.962;2023-08-01T06:00:09;18.67;;;6.95;;
19903;SDS011;10114;50.970;4.962;2023-08-01T06:02:36;12.60;;;6.45;;
19903;SDS011;10114;50.970;4.962;2023-08-01T06:05:02;20.00;;;6.22;;
19903;SDS011;10114;50.970;4.962;2023-08-01T06:07:28;14.25;;;6.13;;
19903;SDS011;10114;50.970;4.962;2023-08-01T06:09:54;13.95;;;6.05;;
19903;SDS011;10114;50.970;4.962;2023-08-01T06:12:20;15.73;;;6.15;;
19903;SDS011;10114;50.970;4.962;2023-08-01T06:14:47;21.20;;;8.18;;
19903;SDS011;10114;50.970;4.962;2023-08-01T06:17:13;13.10;;;5.85;;
19903;SDS011;10114;50.970;4.962;2023-08-01T06:19:39;14.23;;;5.68;;
19903;SDS011;10114;50.970;4.962;2023-08-01T06:22:05;18.80;;;6.50;;
19903;SDS011;10114;50.970;4.962;2023-08-01T06:24:31;14.75;;;6.13;;
19903;SDS011;10114;50.970;4.962;2023-08-01T06:26:57;17.85;;;6.07;;
19903;SDS011;10114;50.970;4.962;2023-08-01T06:29:23;15.77;;;6.18;;
19903;SDS011;10114;50.970;4.962;2023-08-01T06:31:50;17.42;;;6.82;;
19903;SDS011;10114;50.970;4.962;2023-08-01T06:34:16;14.18;;;5.88;;
19903;SDS011;10114;50.970;4.962;2023-08-01T06:36:42;16.55;;;6.20;;
19903;SDS011;10114;50.970;4.962;2023-08-01T06:39:08;18.70;;;7.00;;
19903;SDS011;10114;50.970;4.962;2023-08-01T06:41:34;16.85;;;6.18;;
19903;SDS011;10114;50.970;4.962;2023-08-01T06:44:01;13.60;;;5.47;;
19903;SDS011;10114;50.970;4.962;2023-08-01T06:46:27;18.05;;;6.45;;
19903;SDS011;10114;50.970;4.962;2023-08-01T06:48:53;17.33;;;5.90;;
19903;SDS011;10114;50.970;4.962;2023-08-01T06:51:19;13.45;;;5.05;;
19903;SDS011;10114;50.970;4.962;2023-08-01T06:53:45;10.70;;;5.13;;
19903;SDS011;10114;50.970;4.962;2023-08-01T06:56:11;14.63;;;6.05;;
19903;SDS011;10114;50.970;4.962;2023-08-01T06:58:37;15.30;;;6.03;;
19903;SDS011;10114;50.970;4.962;2023-08-01T07:01:03;15.95;;;6.38;;
19903;SDS011;10114;50.970;4.962;2023-08-01T07:03:29;15.60;;;5.65;;
19903;SDS011;10114;50.970;4.962;2023-08-01T07:05:55;16.92;;;6.20;;
19903;SDS011;10114;50.970;4.962;2023-08-01T07:08:23;14.38;;;5.15;;
19903;SDS011;10114;50.970;4.962;2023-08-01T07:10:49;14.63;;;5.93;;
19903;SDS011;10114;50.970;4.962;2023-08-01T07:13:16;14.52;;;5.80;;
19903;SDS011;10114;50.970;4.962;2023-08-01T07:15:44;13.93;;;5.57;;
19903;SDS011;10114;50.970;4.962;2023-08-01T07:18:12;12.85;;;5.32;;
19903;SDS011;10114;50.970;4.962;2023-08-01T07:20:39;13.68;;;5.95;;
19903;SDS011;10114;50.970;4.962;2023-08-01T07:23:05;16.23;;;5.57;;
19903;SDS011;10114;50.970;4.962;2023-08-01T07:25:32;51.22;;;8.63;;
19903;SDS011;10114;50.970;4.962;2023-08-01T07:27:58;15.10;;;5.82;;
19903;SDS011;10114;50.970;4.962;2023-08-01T07:30:26;71.45;;;13.68;;
19903;SDS011;10114;50.970;4.962;2023-08-01T07:32:53;25.00;;;6.82;;
19903;SDS011;10114;50.970;4.962;2023-08-01T07:35:20;14.90;;;5.85;;
19903;SDS011;10114;50.970;4.962;2023-08-01T07:37:46;24.67;;;6.57;;
19903;SDS011;10114;50.970;4.962;2023-08-01T07:40:12;23.20;;;5.18;;
19903;SDS011;10114;50.970;4.962;2023-08-01T07:42:38;16.50;;;5.82;;
19903;SDS011;10114;50.970;4.962;2023-08-01T07:45:05;15.77;;;5.55;;
19903;SDS011;10114;50.970;4.962;2023-08-01T07:47:32;11.40;;;5.43;;
19903;SDS011;10114;50.970;4.962;2023-08-01T07:49:58;13.65;;;4.95;;
19903;SDS011;10114;50.970;4.962;2023-08-01T07:52:24;12.80;;;5.15;;
19903;SDS011;10114;50.970;4.962;2023-08-01T07:54:50;15.38;;;5.57;;
19903;SDS011;10114;50.970;4.962;2023-08-01T07:57:18;13.73;;;5.07;;
19903;SDS011;10114;50.970;4.962;2023-08-01T07:59:44;13.07;;;4.72;;
19903;SDS011;10114;50.970;4.962;2023-08-01T08:02:10;11.48;;;5.18;;
19903;SDS011;10114;50.970;4.962;2023-08-01T08:04:36;10.60;;;3.65;;
19903;SDS011;10114;50.970;4.962;2023-08-01T08:07:02;11.15;;;4.65;;
19903;SDS011;10114;50.970;4.962;2023-08-01T08:09:28;11.23;;;4.30;;
19903;SDS011;10114;50.970;4.962;2023-08-01T08:11:54;13.05;;;4.38;;
19903;SDS011;10114;50.970;4.962;2023-08-01T08:14:22;11.00;;;4.22;;
19903;SDS011;10114;50.970;4.962;2023-08-01T08:16:48;10.82;;;3.97;;
19903;SDS011;10114;50.970;4.962;2023-08-01T08:19:15;10.38;;;4.10;;
19903;SDS011;10114;50.970;4.962;2023-08-01T08:21:41;10.57;;;3.78;;
19903;SDS011;10114;50.970;4.962;2023-08-01T08:24:07;9.98;;;4.18;;
19903;SDS011;10114;50.970;4.962;2023-08-01T08:26:33;10.48;;;4.15;;
19903;SDS011;10114;50.970;4.962;2023-08-01T08:29:02;11.90;;;3.70;;
19903;SDS011;10114;50.970;4.962;2023-08-01T08:31:29;19.58;;;4.95;;
19903;SDS011;10114;50.970;4.962;2023-08-01T08:33:55;10.50;;;4.22;;
19903;SDS011;10114;50.970;4.962;2023-08-01T08:36:21;13.77;;;3.38;;
19903;SDS011;10114;50.970;4.962;2023-08-01T08:38:47;41.92;;;7.28;;
19903;SDS011;10114;50.970;4.962;2023-08-01T08:41:16;9.65;;;3.40;;
19903;SDS011;10114;50.970;4.962;2023-08-01T08:43:45;11.85;;;3.40;;
19903;SDS011;10114;50.970;4.962;2023-08-01T08:46:14;14.48;;;4.43;;
19903;SDS011;10114;50.970;4.962;2023-08-01T08:48:41;10.20;;;3.63;;
19903;SDS011;10114;50.970;4.962;2023-08-01T08:51:07;11.70;;;3.75;;
19903;SDS011;10114;50.970;4.962;2023-08-01T08:53:33;10.48;;;4.00;;
19903;SDS011;10114;50.970;4.962;2023-08-01T08:56:01;18.45;;;4.75;;
19903;SDS011;10114;50.970;4.962;2023-08-01T08:58:29;15.25;;;4.80;;
19903;SDS011;10114;50.970;4.962;2023-08-01T09:00:56;11.48;;;4.57;;
19903;SDS011;10114;50.970;4.962;2023-08-01T09:03:22;10.40;;;3.97;;
19903;SDS011;10114;50.970;4.962;2023-08-01T09:05:50;10.55;;;4.97;;
19903;SDS011;10114;50.970;4.962;2023-08-01T09:08:18;32.53;;;7.10;;
19903;SDS011;10114;50.970;4.962;2023-08-01T09:10:45;11.38;;;4.00;;
19903;SDS011;10114;50.970;4.962;2023-08-01T09:13:11;12.18;;;4.40;;
19903;SDS011;10114;50.970;4.962;2023-08-01T09:15:37;15.70;;;4.95;;
19903;SDS011;10114;50.970;4.962;2023-08-01T09:18:06;20.27;;;4.53;;
19903;SDS011;10114;50.970;4.962;2023-08-01T09:23:08;34.42;;;6.47;;
19903;SDS011;10114;50.970;4.962;2023-08-01T09:25:34;42.58;;;7.03;;
19903;SDS011;10114;50.970;4.962;2023-08-01T09:28:00;12.45;;;3.75;;
19903;SDS011;10114;50.970;4.962;2023-08-01T09:30:26;11.43;;;3.63;;
19903;SDS011;10114;50.970;4.962;2023-08-01T09:32:56;11.27;;;3.33;;
19903;SDS011;10114;50.970;4.962;2023-08-01T09:35:22;36.95;;;5.57;;
19903;SDS011;10114;50.970;4.962;2023-08-01T09:37:49;9.38;;;3.08;;
19903;SDS011;10114;50.970;4.962;2023-08-01T09:40:15;11.57;;;3.28;;
19903;SDS011;10114;50.970;4.962;2023-08-01T09:42:41;11.18;;;2.50;;
19903;SDS011;10114;50.970;4.962;2023-08-01T09:47:38;11.95;;;2.85;;
19903;SDS011;10114;50.970;4.962;2023-08-01T09:50:04;6.35;;;2.60;;
19903;SDS011;10114;50.970;4.962;2023-08-01T09:52:30;5.88;;;2.47;;
19903;SDS011;10114;50.970;4.962;2023-08-01T09:54:57;8.98;;;2.63;;
19903;SDS011;10114;50.970;4.962;2023-08-01T09:57:23;6.53;;;2.60;;
19903;SDS011;10114;50.970;4.962;2023-08-01T09:59:51;6.43;;;2.83;;
19903;SDS011;10114;50.970;4.962;2023-08-01T10:02:17;6.70;;;3.05;;
19903;SDS011;10114;50.970;4.962;2023-08-01T10:04:45;11.40;;;3.38;;
19903;SDS011;10114;50.970;4.962;2023-08-01T10:07:12;10.18;;;2.78;;
19903;SDS011;10114;50.970;4.962;2023-08-01T10:09:40;10.60;;;3.70;;
19903;SDS011;10114;50.970;4.962;2023-08-01T10:12:06;5.38;;;2.47;;
19903;SDS011;10114;50.970;4.962;2023-08-01T10:14:33;10.23;;;3.30;;
19903;SDS011;10114;50.970;4.962;2023-08-01T10:17:00;12.82;;;3.28;;
19903;SDS011;10114;50.970;4.962;2023-08-01T10:19:27;8.07;;;3.35;;
19903;SDS011;10114;50.970;4.962;2023-08-01T10:21:53;11.43;;;3.28;;
19903;SDS011;10114;50.970;4.962;2023-08-01T10:24:20;8.13;;;2.95;;
19903;SDS011;10114;50.970;4.962;2023-08-01T10:26:46;7.10;;;2.30;;
19903;SDS011;10114;50.970;4.962;2023-08-01T10:29:12;5.10;;;1.83;;
19903;SDS011;10114;50.970;4.962;2023-08-01T10:31:38;6.60;;;2.15;;
19903;SDS011;10114;50.970;4.962;2023-08-01T10:34:12;8.75;;;2.45;;
19903;SDS011;10114;50.970;4.962;2023-08-01T10:36:39;11.43;;;2.63;;
19903;SDS011;10114;50.970;4.962;2023-08-01T10:39:05;7.22;;;2.50;;
19903;SDS011;10114;50.970;4.962;2023-08-01T10:41:32;5.85;;;2.13;;
19903;SDS011;10114;50.970;4.962;2023-08-01T10:44:08;9.02;;;2.60;;
19903;SDS011;10114;50.970;4.962;2023-08-01T10:49:16;7.20;;;3.17;;
19903;SDS011;10114;50.970;4.962;2023-08-01T10:51:42;9.32;;;2.50;;
19903;SDS011;10114;50.970;4.962;2023-08-01T10:54:18;6.38;;;2.92;;
19903;SDS011;10114;50.970;4.962;2023-08-01T10:56:46;9.27;;;2.80;;
19903;SDS011;10114;50.970;4.962;2023-08-01T10:59:13;7.32;;;3.10;;
19903;SDS011;10114;50.970;4.962;2023-08-01T11:01:49;6.38;;;2.58;;
19903;SDS011;10114;50.970;4.962;2023-08-01T11:04:21;11.63;;;3.35;;
19903;SDS011;10114;50.970;4.962;2023-08-01T11:06:48;8.75;;;3.10;;
19903;SDS011;10114;50.970;4.962;2023-08-01T11:09:18;9.90;;;3.15;;
19903;SDS011;10114;50.970;4.962;2023-08-01T11:11:45;6.30;;;2.78;;
19903;SDS011;10114;50.970;4.962;2023-08-01T11:14:13;9.70;;;2.80;;
19903;SDS011;10114;50.970;4.962;2023-08-01T11:16:40;8.35;;;2.67;;
19903;SDS011;10114;50.970;4.962;2023-08-01T11:19:06;9.15;;;2.97;;
19903;SDS011;10114;50.970;4.962;2023-08-01T11:21:32;8.23;;;2.67;;
19903;SDS011;10114;50.970;4.962;2023-08-01T11:24:05;9.07;;;2.53;;
19903;SDS011;10114;50.970;4.962;2023-08-01T11:26:32;6.78;;;2.85;;
19903;SDS011;10114;50.970;4.962;2023-08-01T11:29:01;8.73;;;2.83;;
19903;SDS011;10114;50.970;4.962;2023-08-01T11:31:30;10.57;;;3.50;;
19903;SDS011;10114;50.970;4.962;2023-08-01T11:33:59;8.57;;;2.70;;
19903;SDS011;10114;50.970;4.962;2023-08-01T11:36:26;9.55;;;3.55;;
19903;SDS011;10114;50.970;4.962;2023-08-01T11:38:52;7.57;;;3.22;;
19903;SDS011;10114;50.970;4.962;2023-08-01T11:41:19;8.27;;;2.92;;
19903;SDS011;10114;50.970;4.962;2023-08-01T11:43:45;10.13;;;3.05;;
19903;SDS011;10114;50.970;4.962;2023-08-01T11:46:11;9.50;;;3.03;;
19903;SDS011;10114;50.970;4.962;2023-08-01T11:48:37;11.35;;;3.40;;
19903;SDS011;10114;50.970;4.962;2023-08-01T11:51:04;9.75;;;3.10;;
19903;SDS011;10114;50.970;4.962;2023-08-01T11:53:30;8.18;;;2.75;;
19903;SDS011;10114;50.970;4.962;2023-08-01T11:56:03;11.18;;;3.63;;
19903;SDS011;10114;50.970;4.962;2023-08-01T11:58:33;6.65;;;3.00;;
19903;SDS011;10114;50.970;4.962;2023-08-01T12:01:06;10.07;;;3.40;;
19903;SDS011;10114;50.970;4.962;2023-08-01T12:03:41;9.88;;;4.00;;
19903;SDS011;10114;50.970;4.962;2023-08-01T12:06:08;10.68;;;3.30;;
19903;SDS011;10114;50.970;4.962;2023-08-01T12:08:34;8.25;;;2.95;;
19903;SDS011;10114;50.970;4.962;2023-08-01T12:11:00;11.55;;;3.00;;
19903;SDS011;10114;50.970;4.962;2023-08-01T12:13:27;5.80;;;2.47;;
19903;SDS011;10114;50.970;4.962;2023-08-01T12:15:54;5.60;;;1.98;;
19903;SDS011;10114;50.970;4.962;2023-08-01T12:18:25;5.55;;;1.92;;
19903;SDS011;10114;50.970;4.962;2023-08-01T12:20:51;3.42;;;1.67;;
19903;SDS011;10114;50.970;4.962;2023-08-01T12:23:18;8.55;;;2.05;;
19903;SDS011;10114;50.970;4.962;2023-08-01T12:25:44;8.50;;;2.17;;
19903;SDS011;10114;50.970;4.962;2023-08-01T12:28:13;7.40;;;1.90;;
19903;SDS011;10114;50.970;4.962;2023-08-01T12:30:39;5.78;;;1.83;;
19903;SDS011;10114;50.970;4.962;2023-08-01T12:33:09;8.38;;;1.83;;
19903;SDS011;10114;50.970;4.962;2023-08-01T12:35:38;7.22;;;2.08;;
19903;SDS011;10114;50.970;4.962;2023-08-01T12:38:05;5.38;;;1.67;;
19903;SDS011;10114;50.970;4.962;2023-08-01T12:40:31;4.50;;;1.63;;
19903;SDS011;10114;50.970;4.962;2023-08-01T12:42:57;7.70;;;1.70;;
19903;SDS011;10114;50.970;4.962;2023-08-01T12:45:24;6.72;;;1.60;;
19903;SDS011;10114;50.970;4.962;2023-08-01T12:47:50;5.93;;;2.25;;
19903;SDS011;10114;50.970;4.962;2023-08-01T12:50:16;7.30;;;1.60;;
19903;SDS011;10114;50.970;4.962;2023-08-01T12:52:42;6.18;;;1.60;;
19903;SDS011;10114;50.970;4.962;2023-08-01T12:55:08;5.28;;;1.75;;
19903;SDS011;10114;50.970;4.962;2023-08-01T12:57:34;6.88;;;1.58;;
19903;SDS011;10114;50.970;4.962;2023-08-01T13:00:00;9.85;;;1.83;;
19903;SDS011;10114;50.970;4.962;2023-08-01T13:02:26;5.57;;;1.30;;
19903;SDS011;10114;50.970;4.962;2023-08-01T13:04:52;6.28;;;1.58;;
19903;SDS011;10114;50.970;4.962;2023-08-01T13:07:18;6.28;;;1.80;;
19903;SDS011;10114;50.970;4.962;2023-08-01T13:09:44;6.28;;;1.50;;
19903;SDS011;10114;50.970;4.962;2023-08-01T13:12:10;6.20;;;1.67;;
19903;SDS011;10114;50.970;4.962;2023-08-01T13:14:36;4.57;;;1.50;;
19903;SDS011;10114;50.970;4.962;2023-08-01T13:17:03;8.05;;;1.35;;
19903;SDS011;10114;50.970;4.962;2023-08-01T13:19:29;6.28;;;1.70;;
19903;SDS011;10114;50.970;4.962;2023-08-01T13:21:55;5.70;;;1.55;;
19903;SDS011;10114;50.970;4.962;2023-08-01T13:24:21;9.93;;;1.95;;
19903;SDS011;10114;50.970;4.962;2023-08-01T13:26:47;4.50;;;1.40;;
19903;SDS011;10114;50.970;4.962;2023-08-01T13:29:14;3.17;;;0.85;;
19903;SDS011;10114;50.970;4.962;2023-08-01T13:31:40;5.68;;;1.15;;
19903;SDS011;10114;50.970;4.962;2023-08-01T13:34:07;3.83;;;1.08;;
19903;SDS011;10114;50.970;4.962;2023-08-01T13:36:33;5.97;;;1.00;;
19903;SDS011;10114;50.970;4.962;2023-08-01T13:38:59;3.28;;;0.68;;
19903;SDS011;10114;50.970;4.962;2023-08-01T13:41:25;3.20;;;0.80;;
19903;SDS011;10114;50.970;4.962;2023-08-01T13:43:51;5.65;;;0.82;;
19903;SDS011;10114;50.970;4.962;2023-08-01T13:46:18;4.13;;;1.00;;
19903;SDS011;10114;50.970;4.962;2023-08-01T13:48:47;5.20;;;1.48;;
19903;SDS011;10114;50.970;4.962;2023-08-01T13:51:13;4.18;;;1.02;;
19903;SDS011;10114;50.970;4.962;2023-08-01T13:53:39;4.30;;;0.60;;
19903;SDS011;10114;50.970;4.962;2023-08-01T13:56:11;5.95;;;1.30;;
19903;SDS011;10114;50.970;4.962;2023-08-01T13:58:38;4.72;;;1.25;;
19903;SDS011;10114;50.970;4.962;2023-08-01T14:01:04;7.97;;;1.83;;
19903;SDS011;10114;50.970;4.962;2023-08-01T14:03:32;4.60;;;1.10;;
19903;SDS011;10114;50.970;4.962;2023-08-01T14:08:30;5.13;;;1.23;;
19903;SDS011;10114;50.970;4.962;2023-08-01T14:10:56;7.95;;;1.20;;
19903;SDS011;10114;50.970;4.962;2023-08-01T14:13:22;6.15;;;1.40;;
19903;SDS011;10114;50.970;4.962;2023-08-01T14:15:48;6.80;;;1.35;;
19903;SDS011;10114;50.970;4.962;2023-08-01T14:18:14;5.55;;;1.30;;
19903;SDS011;10114;50.970;4.962;2023-08-01T14:20:40;8.90;;;1.30;;
19903;SDS011;10114;50.970;4.962;2023-08-01T14:23:06;5.53;;;1.38;;
19903;SDS011;10114;50.970;4.962;2023-08-01T14:25:33;7.03;;;1.52;;
19903;SDS011;10114;50.970;4.962;2023-08-01T14:27:59;9.55;;;1.50;;
19903;SDS011;10114;50.970;4.962;2023-08-01T14:30:25;6.85;;;1.83;;
19903;SDS011;10114;50.970;4.962;2023-08-01T14:32:58;8.02;;;1.67;;
19903;SDS011;10114;50.970;4.962;2023-08-01T14:35:24;4.80;;;1.60;;
19903;SDS011;10114;50.970;4.962;2023-08-01T14:37:50;4.88;;;1.08;;
19903;SDS011;10114;50.970;4.962;2023-08-01T14:40:16;4.57;;;1.73;;
19903;SDS011;10114;50.970;4.962;2023-08-01T14:42:42;7.60;;;1.50;;
19903;SDS011;10114;50.970;4.962;2023-08-01T14:45:08;4.75;;;1.05;;
19903;SDS011;10114;50.970;4.962;2023-08-01T14:47:34;9.07;;;1.20;;